This is the latest recevied weather packets stored in our database for station/object N3AVN. If no packets are shown the sender has not sent any weather packets the latest 10 day(s).
| Time | Temp. | Humidity | Pressure | Rain* | Wind** | Luminosity | Snow |
|---|---|---|---|---|---|---|---|
| 1777851927 | 10° C | 47% | 1007.9 hPa | 0 mm | - | 1 W/m² | - |
| 1777851626 | 10° C | 46% | 1008 hPa | 0 mm | - | 4 W/m² | - |
| 1777851322 | 10.56° C | 46% | 1007.9 hPa | 0 mm | - | 4 W/m² | - |
| 1777851018 | 10.56° C | 44% | 1007.7 hPa | 0 mm | - | 7 W/m² | - |
| 1777850715 | 11.67° C | 38% | 1007.9 hPa | 0 mm | - | 9 W/m² | - |
| 1777850413 | 11.67° C | 40% | 1007.9 hPa | 0 mm | - | 11 W/m² | - |
| 1777850110 | 11.67° C | 39% | 1007.9 hPa | 0 mm | - | 15 W/m² | - |
| 1777849807 | 11.67° C | 39% | 1007.7 hPa | 0 mm | - | 17 W/m² | - |
| 1777849503 | 11.67° C | 38% | 1007.9 hPa | 0 mm | - | 18 W/m² | - |
| 1777849201 | 12.22° C | 38% | 1007.7 hPa | 0 mm | - | 20 W/m² | - |
| 1777848897 | 12.22° C | 36% | 1007.8 hPa | 0 mm | - | 22 W/m² | - |
| 1777848592 | 12.22° C | 37% | 1007.6 hPa | 0 mm | - | 23 W/m² | - |
| 1777848290 | 12.78° C | 36% | 1007.8 hPa | 0 mm | - | 24 W/m² | - |
| 1777847988 | 12.78° C | 36% | 1007.6 hPa | 0 mm | - | 27 W/m² | - |
| 1777847686 | 12.78° C | 36% | 1008 hPa | 0 mm | - | 28 W/m² | - |
| 1777847381 | 12.78° C | 36% | 1007.6 hPa | 0 mm | - | 29 W/m² | - |
| 1777847080 | 13.33° C | 35% | 1007.8 hPa | 0 mm | - | 31 W/m² | - |
| 1777846777 | 13.33° C | 34% | 1007.4 hPa | 0 mm | - | 32 W/m² | - |
| 1777846475 | 13.33° C | 36% | 1007.8 hPa | 0 mm | - | 34 W/m² | - |
| 1777846172 | 13.33° C | 36% | 1007.6 hPa | 0 mm | - | 38 W/m² | - |
| 1777845868 | 13.33° C | 34% | 1007.5 hPa | 0 mm | - | 38 W/m² | - |
| 1777845565 | 13.33° C | 35% | 1007.6 hPa | 0 mm | - | 114 W/m² | - |
| 1777845262 | 12.78° C | 36% | 1007.8 hPa | 0 mm | - | 73 W/m² | - |
| 1777844960 | 13.33° C | 36% | 1007.8 hPa | 0 mm | - | 113 W/m² | - |
| 1777844657 | 13.33° C | 37% | 1007.6 hPa | 0 mm | - | 84 W/m² | - |
* Rain latest hour (hover to see other rain measurements)
** Current wind speed in m/s (hover to see current wind gust speed)